createdAt,value
2023-02-13T00:00:20.281Z,8.00
2023-02-13T00:02:47.156Z,8.00
2023-02-13T00:05:13.833Z,7.90
2023-02-13T00:07:40.775Z,7.90
2023-02-13T00:10:08.160Z,7.90
2023-02-13T00:12:35.030Z,7.90
2023-02-13T00:15:01.888Z,7.80
2023-02-13T00:17:28.836Z,7.80
2023-02-13T00:19:55.528Z,7.90
2023-02-13T00:22:22.186Z,7.90
2023-02-13T00:24:48.850Z,7.90
2023-02-13T00:27:15.732Z,7.80
2023-02-13T00:29:42.400Z,7.80
2023-02-13T00:32:09.704Z,7.70
2023-02-13T00:34:36.666Z,7.80
2023-02-13T00:37:03.556Z,7.80
2023-02-13T00:39:30.252Z,7.80
2023-02-13T00:41:56.918Z,7.70
2023-02-13T00:44:23.597Z,7.70
2023-02-13T00:46:50.450Z,7.80
2023-02-13T00:49:17.134Z,7.70
2023-02-13T00:51:44.520Z,7.70
2023-02-13T00:54:11.268Z,7.70
2023-02-13T00:56:38.784Z,7.70
2023-02-13T00:59:05.640Z,7.70
2023-02-13T01:01:32.408Z,7.80
2023-02-13T01:03:59.274Z,7.70
2023-02-13T01:06:26.280Z,7.70
2023-02-13T01:08:53.108Z,7.70
2023-02-13T01:11:19.916Z,7.80
2023-02-13T01:13:48.446Z,7.80
2023-02-13T01:16:17.886Z,7.80
2023-02-13T01:18:44.974Z,7.80
2023-02-13T01:21:18.606Z,7.70
2023-02-13T01:23:45.929Z,7.70
2023-02-13T01:26:24.453Z,7.70
2023-02-13T01:28:55.051Z,7.80
2023-02-13T01:31:22.668Z,7.80
2023-02-13T01:33:49.560Z,7.80
2023-02-13T01:36:16.316Z,7.80
2023-02-13T01:38:43.268Z,7.70
2023-02-13T01:41:10.559Z,7.70
2023-02-13T01:43:58.965Z,7.70
2023-02-13T01:46:39.105Z,7.70
2023-02-13T01:49:23.553Z,7.70
2023-02-13T01:51:53.195Z,7.70
2023-02-13T01:54:27.331Z,7.70
2023-02-13T01:56:56.919Z,7.70
2023-02-13T01:59:33.328Z,7.70
2023-02-13T02:02:01.477Z,7.70
2023-02-13T02:04:35.943Z,7.70
2023-02-13T02:07:08.574Z,7.70
2023-02-13T02:09:39.530Z,7.70
2023-02-13T02:12:15.156Z,7.70
2023-02-13T02:14:42.420Z,7.80
2023-02-13T02:17:09.828Z,7.70
2023-02-13T02:20:12.596Z,7.70
2023-02-13T02:23:02.537Z,7.70
2023-02-13T02:25:56.486Z,7.70
2023-02-13T02:28:31.993Z,7.60
2023-02-13T02:31:36.094Z,7.60
2023-02-13T02:34:39.950Z,7.50
2023-02-13T02:37:45.256Z,7.40
2023-02-13T02:40:47.723Z,7.40
2023-02-13T02:43:28.085Z,7.40
2023-02-13T02:46:06.735Z,7.50
2023-02-13T02:49:01.112Z,7.50
2023-02-13T02:51:41.143Z,7.50
2023-02-13T02:54:46.141Z,7.40
2023-02-13T02:57:26.510Z,7.40
2023-02-13T03:00:12.866Z,7.30
2023-02-13T03:02:58.205Z,7.30
2023-02-13T03:05:48.719Z,7.30
2023-02-13T03:08:36.753Z,7.10
2023-02-13T03:11:22.389Z,7.10
2023-02-13T03:13:50.462Z,7.00
2023-02-13T03:16:40.480Z,7.10
2023-02-13T03:19:36.604Z,7.10
2023-02-13T03:22:19.148Z,7.10
2023-02-13T03:25:30.329Z,7.20
2023-02-13T03:28:50.189Z,7.30
2023-02-13T03:31:49.662Z,7.30
2023-02-13T03:34:23.355Z,7.30
2023-02-13T03:37:26.259Z,7.40
2023-02-13T03:40:02.540Z,7.30
2023-02-13T03:42:32.464Z,7.30
2023-02-13T03:45:33.164Z,7.40
2023-02-13T03:48:09.566Z,7.40
2023-02-13T03:50:43.781Z,7.50
2023-02-13T03:53:13.391Z,7.40
2023-02-13T03:56:04.447Z,7.40
2023-02-13T03:58:54.766Z,7.40
2023-02-13T04:01:26.564Z,7.50
2023-02-13T04:04:13.783Z,7.50
2023-02-13T04:07:05.379Z,7.50
2023-02-13T04:09:35.433Z,7.50
2023-02-13T04:12:17.542Z,7.40
2023-02-13T04:14:52.692Z,7.40
2023-02-13T04:17:43.806Z,7.40
2023-02-13T04:20:12.811Z,7.40
2023-02-13T04:22:47.457Z,7.40
2023-02-13T04:25:17.047Z,7.40
2023-02-13T04:27:43.882Z,7.40
2023-02-13T04:30:11.268Z,7.40
2023-02-13T04:32:38.117Z,7.40
2023-02-13T04:35:05.495Z,7.40
2023-02-13T04:37:32.064Z,7.40
2023-02-13T04:39:58.927Z,7.40
2023-02-13T04:42:25.693Z,7.40
2023-02-13T04:44:52.356Z,7.40
2023-02-13T04:47:18.947Z,7.40
2023-02-13T04:49:45.749Z,7.40
2023-02-13T04:52:12.626Z,7.50
2023-02-13T04:54:39.276Z,7.40
2023-02-13T04:57:05.978Z,7.40
2023-02-13T04:59:32.636Z,7.50
2023-02-13T05:01:59.707Z,7.40
2023-02-13T05:04:29.134Z,7.30
2023-02-13T05:06:55.977Z,7.40
2023-02-13T05:09:22.659Z,7.40
2023-02-13T05:11:53.091Z,7.40
2023-02-13T05:14:19.843Z,7.40
2023-02-13T05:16:47.641Z,7.50
2023-02-13T05:19:14.236Z,7.50
2023-02-13T05:22:01.809Z,7.40
2023-02-13T05:24:28.594Z,7.50
2023-02-13T05:26:55.271Z,7.50
2023-02-13T05:29:24.926Z,7.50
2023-02-13T05:31:54.169Z,7.50
2023-02-13T05:34:25.102Z,7.50
2023-02-13T05:36:52.243Z,7.50
2023-02-13T05:39:19.627Z,7.60
2023-02-13T05:41:47.667Z,7.60
2023-02-13T05:44:15.521Z,7.60
2023-02-13T05:46:44.739Z,7.60
2023-02-13T05:49:13.074Z,7.60
2023-02-13T05:51:39.898Z,7.50
2023-02-13T05:54:06.746Z,7.60
2023-02-13T05:56:33.541Z,7.60
2023-02-13T05:59:00.570Z,7.60
2023-02-13T06:01:27.383Z,7.60
2023-02-13T06:03:57.173Z,7.50
2023-02-13T06:06:25.568Z,7.50
2023-02-13T06:08:54.216Z,7.40
2023-02-13T06:11:20.877Z,7.40
2023-02-13T06:13:47.709Z,7.40
2023-02-13T06:16:14.427Z,7.50
2023-02-13T06:18:42.249Z,7.50
2023-02-13T06:21:09.236Z,7.40
2023-02-13T06:23:37.284Z,7.40
2023-02-13T06:26:06.088Z,7.50
2023-02-13T06:28:33.505Z,7.50
2023-02-13T06:31:00.625Z,7.50
2023-02-13T06:33:27.614Z,7.50
2023-02-13T06:35:57.340Z,7.50
2023-02-13T06:38:24.287Z,7.50
2023-02-13T06:40:51.325Z,7.50
2023-02-13T06:43:18.594Z,7.50
2023-02-13T06:45:47.339Z,7.40
2023-02-13T06:48:14.693Z,7.50
2023-02-13T06:50:41.579Z,7.50
2023-02-13T06:53:08.450Z,7.50
2023-02-13T06:55:35.848Z,7.50
2023-02-13T06:58:02.788Z,7.50
2023-02-13T07:00:29.503Z,7.50
2023-02-13T07:03:02.960Z,7.50
2023-02-13T07:05:29.921Z,7.50
2023-02-13T07:07:56.559Z,7.60
2023-02-13T07:10:23.468Z,7.50
2023-02-13T07:13:03.607Z,7.40
2023-02-13T07:15:32.775Z,7.40
2023-02-13T07:18:00.426Z,7.40
2023-02-13T07:20:27.859Z,7.40
2023-02-13T07:23:01.478Z,7.30
2023-02-13T07:25:28.733Z,7.30
2023-02-13T07:27:55.553Z,7.20
2023-02-13T07:30:22.331Z,7.20
2023-02-13T07:32:49.279Z,7.30
2023-02-13T07:35:15.886Z,7.30
2023-02-13T07:37:42.454Z,7.30
2023-02-13T07:40:11.890Z,7.30
2023-02-13T07:42:38.657Z,7.30
2023-02-13T07:45:09.305Z,7.40
2023-02-13T07:47:36.040Z,7.40
2023-02-13T07:50:05.841Z,7.40
2023-02-13T07:52:33.378Z,7.30
2023-02-13T07:55:00.055Z,7.30
2023-02-13T07:57:26.827Z,7.40
2023-02-13T07:59:53.583Z,7.40
2023-02-13T08:02:20.440Z,7.30
2023-02-13T08:04:47.104Z,7.40
2023-02-13T08:07:17.543Z,7.30
2023-02-13T08:10:06.267Z,7.20
2023-02-13T08:12:35.885Z,7.20
2023-02-13T08:15:03.791Z,7.20
2023-02-13T08:17:30.627Z,7.20
2023-02-13T08:19:57.621Z,7.20
2023-02-13T08:22:24.556Z,7.20
2023-02-13T08:24:53.308Z,7.30
2023-02-13T08:27:20.476Z,7.40
2023-02-13T08:29:49.283Z,7.40
2023-02-13T08:32:16.028Z,7.50
2023-02-13T08:34:42.705Z,7.50
2023-02-13T08:37:09.565Z,7.50
2023-02-13T08:39:36.180Z,7.60
2023-02-13T08:42:02.806Z,7.60
2023-02-13T08:44:29.490Z,7.60
2023-02-13T08:46:58.405Z,7.60
2023-02-13T08:49:25.496Z,7.60
2023-02-13T08:51:52.297Z,7.70
2023-02-13T08:54:19.092Z,7.60
2023-02-13T08:56:46.994Z,7.60
2023-02-13T08:59:13.947Z,7.70
2023-02-13T09:01:42.860Z,7.60
2023-02-13T09:04:09.932Z,7.60
2023-02-13T09:06:36.934Z,7.70
2023-02-13T09:09:07.842Z,7.70
2023-02-13T09:11:34.625Z,7.70
2023-02-13T09:14:01.219Z,7.70
2023-02-13T09:16:28.194Z,7.70
2023-02-13T09:18:54.885Z,7.70
2023-02-13T09:21:25.171Z,7.80
2023-02-13T09:23:52.925Z,7.80
2023-02-13T09:26:20.864Z,7.80
2023-02-13T09:28:47.861Z,7.80
2023-02-13T09:31:17.614Z,7.80
2023-02-13T09:33:46.269Z,7.90
2023-02-13T09:36:19.985Z,7.90
2023-02-13T09:38:48.480Z,7.80
2023-02-13T09:41:21.190Z,7.90
2023-02-13T09:44:01.456Z,7.90
2023-02-13T09:46:39.834Z,7.90
2023-02-13T09:49:19.987Z,7.90
2023-02-13T09:51:57.442Z,8.00
2023-02-13T09:54:26.835Z,8.00
2023-02-13T09:57:20.423Z,8.00
2023-02-13T10:00:15.421Z,8.00
2023-02-13T10:03:14.074Z,7.90
2023-02-13T10:05:57.945Z,8.00
2023-02-13T10:08:43.903Z,8.00
2023-02-13T10:11:48.590Z,8.00
2023-02-13T10:14:32.679Z,8.00
2023-02-13T10:17:05.580Z,8.00
2023-02-13T10:19:48.921Z,7.90
2023-02-13T10:22:20.244Z,7.90
2023-02-13T10:24:56.620Z,7.80
2023-02-13T10:27:32.725Z,7.80
2023-02-13T10:30:23.202Z,7.90
2023-02-13T10:33:19.383Z,8.00
2023-02-13T10:35:50.545Z,7.90
2023-02-13T10:38:20.539Z,8.00
2023-02-13T10:41:37.570Z,8.00
2023-02-13T10:44:23.531Z,8.00
2023-02-13T10:47:08.403Z,8.10
2023-02-13T10:49:52.006Z,8.10
2023-02-13T10:52:39.464Z,8.00
2023-02-13T10:55:20.986Z,8.00
2023-02-13T10:58:14.159Z,8.10
2023-02-13T11:01:01.408Z,8.10
2023-02-13T11:03:30.230Z,8.00
2023-02-13T11:05:59.525Z,8.00
2023-02-13T11:08:46.147Z,8.00
2023-02-13T11:11:33.332Z,8.00
2023-02-13T11:14:19.205Z,8.10
2023-02-13T11:17:12.290Z,8.20
2023-02-13T11:19:56.727Z,8.20
2023-02-13T11:22:38.111Z,8.10
2023-02-13T11:25:28.792Z,8.00
2023-02-13T11:28:10.208Z,8.00
2023-02-13T11:30:39.144Z,8.00
2023-02-13T11:33:21.184Z,8.00
2023-02-13T11:35:48.222Z,7.90
2023-02-13T11:38:23.450Z,8.00
2023-02-13T11:41:13.331Z,7.90
2023-02-13T11:43:48.413Z,7.90
2023-02-13T11:46:21.187Z,7.80
2023-02-13T11:48:59.509Z,7.70
2023-02-13T11:51:47.825Z,7.80
2023-02-13T11:54:38.880Z,7.80
2023-02-13T11:57:32.100Z,7.90
2023-02-13T12:00:00.787Z,8.00
2023-02-13T12:02:29.954Z,7.90
2023-02-13T12:05:31.791Z,7.90
2023-02-13T12:08:02.201Z,7.90
2023-02-13T12:10:32.108Z,8.00
2023-02-13T12:13:06.286Z,7.90
2023-02-13T12:15:37.458Z,7.90
2023-02-13T12:18:30.063Z,7.80
2023-02-13T12:21:21.133Z,7.90
2023-02-13T12:24:22.603Z,8.00
2023-02-13T12:26:59.379Z,8.00
2023-02-13T12:29:42.091Z,8.00
2023-02-13T12:32:33.916Z,8.00
2023-02-13T12:35:27.266Z,8.10
2023-02-13T12:38:22.334Z,8.10
2023-02-13T12:41:16.763Z,8.10
2023-02-13T12:43:53.105Z,8.10
2023-02-13T12:46:39.966Z,8.10
2023-02-13T12:49:43.022Z,8.20
2023-02-13T12:52:22.740Z,8.10
2023-02-13T12:55:18.198Z,8.10
2023-02-13T12:58:14.038Z,8.00
2023-02-13T13:01:09.863Z,8.00
2023-02-13T13:04:02.511Z,8.00
2023-02-13T13:06:40.777Z,8.00
2023-02-13T13:09:25.580Z,7.90
2023-02-13T13:12:14.663Z,8.00
2023-02-13T13:14:44.284Z,8.00
2023-02-13T13:17:34.730Z,8.00
2023-02-13T13:20:26.517Z,8.00
2023-02-13T13:22:59.969Z,8.00
2023-02-13T13:25:51.254Z,8.10
2023-02-13T13:28:22.405Z,8.10
2023-02-13T13:30:49.764Z,8.10
2023-02-13T13:33:21.614Z,8.10
2023-02-13T13:36:10.911Z,8.10
2023-02-13T13:38:56.095Z,8.00
2023-02-13T13:41:43.995Z,7.90
2023-02-13T13:44:37.017Z,7.90
2023-02-13T13:47:28.304Z,8.40
2023-02-13T13:49:56.698Z,7.90
2023-02-13T13:52:30.601Z,7.80
2023-02-13T13:55:00.373Z,7.90
2023-02-13T13:57:48.175Z,7.90
2023-02-13T14:00:18.918Z,7.90
2023-02-13T14:03:21.801Z,7.90
2023-02-13T14:06:12.188Z,8.00
2023-02-13T14:08:41.763Z,7.80
2023-02-13T14:11:27.085Z,7.90
2023-02-13T14:13:53.842Z,8.00
2023-02-13T14:16:42.920Z,8.00
2023-02-13T14:19:38.327Z,8.00
2023-02-13T14:22:20.074Z,8.00
2023-02-13T14:24:51.338Z,7.90
2023-02-13T14:27:23.528Z,7.90
2023-02-13T14:29:52.743Z,7.90
2023-02-13T14:32:25.908Z,7.80
2023-02-13T14:35:00.507Z,7.80
2023-02-13T14:37:37.376Z,7.80
2023-02-13T14:40:11.209Z,7.90
2023-02-13T14:42:40.326Z,7.90
2023-02-13T14:45:16.802Z,7.80
2023-02-13T14:47:51.095Z,7.80
2023-02-13T14:50:35.578Z,7.70
2023-02-13T14:53:08.206Z,7.50
2023-02-13T14:55:40.177Z,7.60
2023-02-13T14:58:21.178Z,7.60
2023-02-13T15:01:25.448Z,7.60
2023-02-13T15:04:01.802Z,7.60
2023-02-13T15:06:33.594Z,7.70
2023-02-13T15:09:04.702Z,7.50
2023-02-13T15:11:42.929Z,7.50
2023-02-13T15:14:16.507Z,7.50
2023-02-13T15:16:46.038Z,7.50
2023-02-13T15:19:17.014Z,7.60
2023-02-13T15:21:54.044Z,7.60
2023-02-13T15:24:25.006Z,7.60
2023-02-13T15:27:05.239Z,7.60
2023-02-13T15:29:44.332Z,7.60
2023-02-13T15:32:21.722Z,7.60
2023-02-13T15:34:49.153Z,7.70
2023-02-13T15:37:24.296Z,7.60
2023-02-13T15:39:50.996Z,7.60
2023-02-13T15:42:17.636Z,7.60
2023-02-13T15:44:50.714Z,7.60
2023-02-13T15:47:29.714Z,7.60
2023-02-13T15:49:56.845Z,7.40
2023-02-13T15:52:32.279Z,7.20
2023-02-13T15:54:59.852Z,7.30
2023-02-13T15:57:27.689Z,7.30
2023-02-13T15:59:58.657Z,7.30
2023-02-13T16:02:42.642Z,7.40
2023-02-13T16:05:12.828Z,7.30
2023-02-13T16:07:51.337Z,7.40
2023-02-13T16:10:31.334Z,7.40
2023-02-13T16:13:01.084Z,7.40
2023-02-13T16:15:30.604Z,7.20
2023-02-13T16:17:57.724Z,7.30
2023-02-13T16:20:30.165Z,7.40
2023-02-13T16:23:04.940Z,7.40
2023-02-13T16:25:36.325Z,7.40
2023-02-13T16:28:14.889Z,7.50
2023-02-13T16:30:45.031Z,7.50
2023-02-13T16:33:14.877Z,7.50
2023-02-13T16:35:56.709Z,7.60
2023-02-13T16:38:36.525Z,7.50
2023-02-13T16:41:22.305Z,7.50
2023-02-13T16:43:53.468Z,7.40
2023-02-13T16:46:32.177Z,7.50
2023-02-13T16:49:01.470Z,7.60
2023-02-13T16:51:39.232Z,7.50
2023-02-13T16:54:34.322Z,7.60
2023-02-13T16:57:04.710Z,7.60
2023-02-13T16:59:46.912Z,7.60
2023-02-13T17:02:18.041Z,7.60
2023-02-13T17:05:09.683Z,7.60
2023-02-13T17:07:46.957Z,7.60
2023-02-13T17:10:37.969Z,7.60
2023-02-13T17:13:13.296Z,7.60
2023-02-13T17:15:45.380Z,7.50
2023-02-13T17:18:12.282Z,7.40
2023-02-13T17:20:42.406Z,7.60
2023-02-13T17:23:19.142Z,7.40
2023-02-13T17:25:47.711Z,7.40
2023-02-13T17:28:17.654Z,7.40
2023-02-13T17:30:45.470Z,7.40
2023-02-13T17:33:22.767Z,7.40
2023-02-13T17:35:49.721Z,7.40
2023-02-13T17:38:16.745Z,7.40
2023-02-13T17:40:44.980Z,7.40
2023-02-13T17:43:13.914Z,7.50
2023-02-13T17:45:40.901Z,7.40
2023-02-13T17:48:07.661Z,7.40
2023-02-13T17:50:35.812Z,7.50
2023-02-13T17:53:05.525Z,7.60
2023-02-13T17:55:33.786Z,7.60
2023-02-13T17:58:01.441Z,7.50
2023-02-13T18:00:32.811Z,7.50
2023-02-13T18:03:00.950Z,7.40
2023-02-13T18:05:29.168Z,7.40
2023-02-13T18:07:57.126Z,7.40
2023-02-13T18:10:26.532Z,7.40
2023-02-13T18:12:55.553Z,7.20
2023-02-13T18:15:22.976Z,7.10
2023-02-13T18:17:49.646Z,7.10
2023-02-13T18:20:21.515Z,7.00
2023-02-13T18:22:50.677Z,7.00
2023-02-13T18:25:19.320Z,7.10
2023-02-13T18:27:46.332Z,7.10
2023-02-13T18:30:15.813Z,7.20
2023-02-13T18:32:42.650Z,7.20
2023-02-13T18:35:09.528Z,7.20
2023-02-13T18:37:36.140Z,7.20
2023-02-13T18:40:03.213Z,7.20
2023-02-13T18:42:29.828Z,7.20
2023-02-13T18:44:56.684Z,7.10
2023-02-13T18:47:23.547Z,7.10
2023-02-13T18:49:50.185Z,7.20
2023-02-13T18:52:17.018Z,7.20
2023-02-13T18:54:43.650Z,7.20
2023-02-13T18:57:10.264Z,7.20
2023-02-13T18:59:36.967Z,7.20
2023-02-13T19:02:04.368Z,7.30
2023-02-13T19:04:31.684Z,7.30
2023-02-13T19:06:58.396Z,7.30
2023-02-13T19:09:25.023Z,7.30
2023-02-13T19:11:51.764Z,7.20
2023-02-13T19:14:18.768Z,7.30
2023-02-13T19:16:45.378Z,7.30
2023-02-13T19:27:21.636Z,7.30
2023-02-13T19:29:48.402Z,7.20
2023-02-13T19:32:15.235Z,7.20
2023-02-13T19:34:42.292Z,7.10
2023-02-13T19:37:09.030Z,7.10
2023-02-13T19:39:35.686Z,7.20
2023-02-13T19:42:03.839Z,7.10
2023-02-13T19:44:31.160Z,7.10
2023-02-13T19:46:58.118Z,7.00
2023-02-13T19:49:28.976Z,7.00
2023-02-13T19:51:55.830Z,7.00
2023-02-13T19:54:22.638Z,7.00
2023-02-13T19:56:49.680Z,7.10
2023-02-13T19:59:16.536Z,7.20
2023-02-13T20:01:43.343Z,7.20
2023-02-13T20:04:12.455Z,7.20
2023-02-13T20:06:39.473Z,7.20
2023-02-13T20:09:10.204Z,7.20
2023-02-13T20:11:37.284Z,7.30
2023-02-13T20:14:05.568Z,7.30
2023-02-13T20:16:35.068Z,7.20
2023-02-13T20:19:06.224Z,7.20
2023-02-13T20:21:35.231Z,7.20
2023-02-13T20:24:05.305Z,7.20
2023-02-13T20:26:32.309Z,7.30
2023-02-13T20:29:01.707Z,7.30
2023-02-13T20:31:30.049Z,7.30
2023-02-13T20:33:57.561Z,7.30
2023-02-13T20:36:30.803Z,7.20
2023-02-13T20:39:03.775Z,7.20
2023-02-13T20:41:33.589Z,7.20
2023-02-13T20:44:02.986Z,7.30
2023-02-13T20:46:34.279Z,7.40
2023-02-13T20:49:03.565Z,7.40
2023-02-13T20:51:30.677Z,7.40
2023-02-13T20:53:57.653Z,7.30
2023-02-13T20:56:25.442Z,7.30
2023-02-13T20:58:53.709Z,7.40
2023-02-13T21:01:22.411Z,7.40
2023-02-13T21:03:53.900Z,7.30
2023-02-13T21:06:27.350Z,7.30
2023-02-13T21:08:54.353Z,7.40
2023-02-13T21:11:21.983Z,7.40
2023-02-13T21:13:49.182Z,7.40
2023-02-13T21:16:24.572Z,7.40
2023-02-13T21:18:55.009Z,7.40
2023-02-13T21:21:24.210Z,7.40
2023-02-13T21:23:55.538Z,7.40
2023-02-13T21:26:22.982Z,7.40
2023-02-13T21:28:50.696Z,7.40
2023-02-13T21:31:29.437Z,7.40
2023-02-13T21:34:05.335Z,7.40
2023-02-13T21:36:33.417Z,7.50
2023-02-13T21:39:00.944Z,7.40
2023-02-13T21:41:28.157Z,7.30
2023-02-13T21:43:55.194Z,7.30
2023-02-13T21:46:31.344Z,7.40
2023-02-13T21:49:03.522Z,7.40
2023-02-13T21:51:32.744Z,7.40
2023-02-13T21:54:01.223Z,7.40
2023-02-13T21:56:31.124Z,7.40
2023-02-13T21:58:58.513Z,7.40
2023-02-13T22:01:32.265Z,7.40
2023-02-13T22:04:01.687Z,7.40
2023-02-13T22:06:30.862Z,7.30
2023-02-13T22:09:00.766Z,7.30
2023-02-13T22:11:27.797Z,7.30
2023-02-13T22:14:01.881Z,7.40
2023-02-13T22:16:34.008Z,7.40
2023-02-13T22:19:01.629Z,7.30
2023-02-13T22:21:30.910Z,7.30
2023-02-13T22:23:57.989Z,7.20
2023-02-13T22:26:29.859Z,7.10
2023-02-13T22:29:00.088Z,7.20
2023-02-13T22:31:27.251Z,7.20
2023-02-13T22:34:03.257Z,7.10
2023-02-13T22:36:38.427Z,7.10
2023-02-13T22:39:06.102Z,7.10
2023-02-13T22:41:32.934Z,7.10
2023-02-13T22:43:59.570Z,7.20
2023-02-13T22:46:29.646Z,7.20
2023-02-13T22:48:57.308Z,7.30
2023-02-13T22:51:26.848Z,7.30
2023-02-13T22:53:56.200Z,7.30
2023-02-13T22:56:24.319Z,7.30
2023-02-13T22:58:50.986Z,7.30
2023-02-13T23:01:19.979Z,7.30
2023-02-13T23:03:47.405Z,7.30
2023-02-13T23:06:15.867Z,7.30
2023-02-13T23:08:43.131Z,7.30
2023-02-13T23:11:31.349Z,7.10
2023-02-13T23:13:58.192Z,7.20
2023-02-13T23:16:25.055Z,7.20
2023-02-13T23:18:56.681Z,7.30
2023-02-13T23:21:24.673Z,7.40
2023-02-13T23:23:51.828Z,7.40
2023-02-13T23:26:18.700Z,7.30
2023-02-13T23:28:45.468Z,7.20
2023-02-13T23:31:12.086Z,7.30
2023-02-13T23:33:38.727Z,7.30
2023-02-13T23:36:05.765Z,7.30
2023-02-13T23:38:32.610Z,7.40
2023-02-13T23:41:09.366Z,7.30
2023-02-13T23:43:36.265Z,7.30
2023-02-13T23:46:04.601Z,7.30
2023-02-13T23:48:32.317Z,7.30
2023-02-13T23:50:59.724Z,7.30
2023-02-13T23:53:26.680Z,7.30
2023-02-13T23:55:54.821Z,7.20
2023-02-13T23:58:21.960Z,7.30
